sensor_id;sensor_type;location;lat;lon;timestamp;temperature;humidity
77613;DHT22;66777;52.282;5.960;2023-02-15T00:00:21;0.30;83.60
77613;DHT22;66777;52.282;5.960;2023-02-15T00:02:47;0.30;83.50
77613;DHT22;66777;52.282;5.960;2023-02-15T00:05:12;0.20;83.40
77613;DHT22;66777;52.282;5.960;2023-02-15T00:07:38;0.20;83.20
77613;DHT22;66777;52.282;5.960;2023-02-15T00:10:04;0.00;83.00
77613;DHT22;66777;52.282;5.960;2023-02-15T00:12:32;0.00;82.90
77613;DHT22;66777;52.282;5.960;2023-02-15T00:14:58;-0.10;83.00
77613;DHT22;66777;52.282;5.960;2023-02-15T00:17:23;-0.10;83.00
77613;DHT22;66777;52.282;5.960;2023-02-15T00:19:50;-0.20;83.10
77613;DHT22;66777;52.282;5.960;2023-02-15T00:22:16;-0.20;83.30
77613;DHT22;66777;52.282;5.960;2023-02-15T00:24:41;-0.20;83.40
77613;DHT22;66777;52.282;5.960;2023-02-15T00:27:07;-0.30;83.30
77613;DHT22;66777;52.282;5.960;2023-02-15T00:29:34;-0.30;83.30
77613;DHT22;66777;52.282;5.960;2023-02-15T00:31:59;-0.30;83.20
77613;DHT22;66777;52.282;5.960;2023-02-15T00:34:26;-0.30;83.20
77613;DHT22;66777;52.282;5.960;2023-02-15T00:36:53;-0.30;83.50
77613;DHT22;66777;52.282;5.960;2023-02-15T00:39:19;-0.20;83.60
77613;DHT22;66777;52.282;5.960;2023-02-15T00:41:45;-0.20;83.50
77613;DHT22;66777;52.282;5.960;2023-02-15T00:44:12;-0.20;83.70
77613;DHT22;66777;52.282;5.960;2023-02-15T00:46:38;-0.20;83.60
77613;DHT22;66777;52.282;5.960;2023-02-15T00:49:04;-0.20;83.60
77613;DHT22;66777;52.282;5.960;2023-02-15T00:51:31;-0.20;83.60
77613;DHT22;66777;52.282;5.960;2023-02-15T00:53:58;-0.20;83.60
77613;DHT22;66777;52.282;5.960;2023-02-15T00:56:23;-0.20;83.50
77613;DHT22;66777;52.282;5.960;2023-02-15T00:58:49;-0.20;83.60
77613;DHT22;66777;52.282;5.960;2023-02-15T01:01:18;-0.20;83.70
77613;DHT22;66777;52.282;5.960;2023-02-15T01:03:44;-0.20;83.90
77613;DHT22;66777;52.282;5.960;2023-02-15T01:06:12;-0.10;83.90
77613;DHT22;66777;52.282;5.960;2023-02-15T01:08:38;-0.10;83.80
77613;DHT22;66777;52.282;5.960;2023-02-15T01:11:22;-0.10;83.90
77613;DHT22;66777;52.282;5.960;2023-02-15T01:13:53;-0.10;83.80
77613;DHT22;66777;52.282;5.960;2023-02-15T01:16:20;-0.10;83.80
77613;DHT22;66777;52.282;5.960;2023-02-15T01:18:45;-0.10;83.90
77613;DHT22;66777;52.282;5.960;2023-02-15T01:21:17;-0.10;84.00
77613;DHT22;66777;52.282;5.960;2023-02-15T01:23:43;-0.10;84.10
77613;DHT22;66777;52.282;5.960;2023-02-15T01:26:09;-0.20;84.00
77613;DHT22;66777;52.282;5.960;2023-02-15T01:28:35;-0.30;83.60
77613;DHT22;66777;52.282;5.960;2023-02-15T01:31:18;-0.30;83.50
77613;DHT22;66777;52.282;5.960;2023-02-15T01:33:47;-0.40;83.50
77613;DHT22;66777;52.282;5.960;2023-02-15T01:36:13;-0.40;83.60
77613;DHT22;66777;52.282;5.960;2023-02-15T01:38:39;-0.50;83.90
77613;DHT22;66777;52.282;5.960;2023-02-15T01:41:05;-0.60;83.80
77613;DHT22;66777;52.282;5.960;2023-02-15T01:43:51;-0.60;84.00
77613;DHT22;66777;52.282;5.960;2023-02-15T01:46:20;-0.70;84.00
77613;DHT22;66777;52.282;5.960;2023-02-15T01:48:50;-0.70;84.10
77613;DHT22;66777;52.282;5.960;2023-02-15T01:51:19;-0.70;84.20
77613;DHT22;66777;52.282;5.960;2023-02-15T01:53:53;-0.70;84.30
77613;DHT22;66777;52.282;5.960;2023-02-15T01:56:25;-0.90;84.20
77613;DHT22;66777;52.282;5.960;2023-02-15T01:58:54;-0.90;84.20
77613;DHT22;66777;52.282;5.960;2023-02-15T02:01:20;-0.90;84.20
77613;DHT22;66777;52.282;5.960;2023-02-15T02:06:31;-1.00;84.20
77613;DHT22;66777;52.282;5.960;2023-02-15T02:08:58;-1.10;84.50
77613;DHT22;66777;52.282;5.960;2023-02-15T02:11:24;-1.10;84.50
77613;DHT22;66777;52.282;5.960;2023-02-15T02:13:51;-1.10;84.60
77613;DHT22;66777;52.282;5.960;2023-02-15T02:16:34;-1.10;84.50
77613;DHT22;66777;52.282;5.960;2023-02-15T02:25:18;-1.10;84.60
77613;DHT22;66777;52.282;5.960;2023-02-15T02:36:22;-1.10;84.70
77613;DHT22;66777;52.282;5.960;2023-02-15T02:42:06;-1.10;84.50
77613;DHT22;66777;52.282;5.960;2023-02-15T02:44:44;-1.10;84.60
77613;DHT22;66777;52.282;5.960;2023-02-15T02:47:18;-1.10;84.60
77613;DHT22;66777;52.282;5.960;2023-02-15T02:49:46;-1.10;84.60
77613;DHT22;66777;52.282;5.960;2023-02-15T02:52:39;-1.10;84.60
77613;DHT22;66777;52.282;5.960;2023-02-15T02:55:29;-1.10;84.60
77613;DHT22;66777;52.282;5.960;2023-02-15T03:00:48;-1.10;84.50
77613;DHT22;66777;52.282;5.960;2023-02-15T03:06:07;-1.10;84.50
77613;DHT22;66777;52.282;5.960;2023-02-15T03:08:43;-1.10;84.50
77613;DHT22;66777;52.282;5.960;2023-02-15T03:11:11;-1.10;84.40
77613;DHT22;66777;52.282;5.960;2023-02-15T03:13:37;-1.10;84.40
77613;DHT22;66777;52.282;5.960;2023-02-15T03:16:05;-1.10;84.20
77613;DHT22;66777;52.282;5.960;2023-02-15T03:18:54;-1.10;84.20
77613;DHT22;66777;52.282;5.960;2023-02-15T03:24:17;-1.20;84.10
77613;DHT22;66777;52.282;5.960;2023-02-15T03:26:46;-1.20;84.20
77613;DHT22;66777;52.282;5.960;2023-02-15T03:29:13;-1.20;84.20
77613;DHT22;66777;52.282;5.960;2023-02-15T03:31:43;-1.20;84.20
77613;DHT22;66777;52.282;5.960;2023-02-15T03:34:12;-1.20;84.10
77613;DHT22;66777;52.282;5.960;2023-02-15T03:36:48;-1.20;84.20
77613;DHT22;66777;52.282;5.960;2023-02-15T03:39:28;-1.10;84.20
77613;DHT22;66777;52.282;5.960;2023-02-15T03:42:17;-1.20;84.10
77613;DHT22;66777;52.282;5.960;2023-02-15T03:44:49;-1.30;84.20
77613;DHT22;66777;52.282;5.960;2023-02-15T03:47:20;-1.20;84.30
77613;DHT22;66777;52.282;5.960;2023-02-15T03:50:00;-1.20;84.20
77613;DHT22;66777;52.282;5.960;2023-02-15T03:52:28;-1.30;84.30
77613;DHT22;66777;52.282;5.960;2023-02-15T03:54:55;-1.30;84.40
77613;DHT22;66777;52.282;5.960;2023-02-15T03:57:26;-1.30;84.40
77613;DHT22;66777;52.282;5.960;2023-02-15T04:05:38;-1.40;84.00
77613;DHT22;66777;52.282;5.960;2023-02-15T04:08:04;-1.50;84.00
77613;DHT22;66777;52.282;5.960;2023-02-15T04:10:30;-1.50;84.10
77613;DHT22;66777;52.282;5.960;2023-02-15T04:13:14;-1.50;84.10
77613;DHT22;66777;52.282;5.960;2023-02-15T04:15:40;-1.50;84.10
77613;DHT22;66777;52.282;5.960;2023-02-15T04:18:24;-1.50;84.00
77613;DHT22;66777;52.282;5.960;2023-02-15T04:21:08;-1.50;84.00
77613;DHT22;66777;52.282;5.960;2023-02-15T04:23:52;-1.40;84.10
77613;DHT22;66777;52.282;5.960;2023-02-15T04:26:36;-1.50;84.10
77613;DHT22;66777;52.282;5.960;2023-02-15T04:29:02;-1.50;84.10
77613;DHT22;66777;52.282;5.960;2023-02-15T04:31:28;-1.50;84.00
77613;DHT22;66777;52.282;5.960;2023-02-15T04:33:53;-1.40;84.00
77613;DHT22;66777;52.282;5.960;2023-02-15T04:36:19;-1.40;84.00
77613;DHT22;66777;52.282;5.960;2023-02-15T04:38:44;-1.50;84.00
77613;DHT22;66777;52.282;5.960;2023-02-15T04:41:10;-1.40;84.10
77613;DHT22;66777;52.282;5.960;2023-02-15T04:43:37;-1.40;84.20
77613;DHT22;66777;52.282;5.960;2023-02-15T04:46:03;-1.40;84.20
77613;DHT22;66777;52.282;5.960;2023-02-15T04:48:29;-1.30;84.10
77613;DHT22;66777;52.282;5.960;2023-02-15T04:50:55;-1.40;84.00
77613;DHT22;66777;52.282;5.960;2023-02-15T04:53:20;-1.40;84.10
77613;DHT22;66777;52.282;5.960;2023-02-15T04:55:46;-1.40;84.10
77613;DHT22;66777;52.282;5.960;2023-02-15T04:58:11;-1.50;84.10
77613;DHT22;66777;52.282;5.960;2023-02-15T05:00:37;-1.50;84.20
77613;DHT22;66777;52.282;5.960;2023-02-15T05:03:03;-1.50;84.10
77613;DHT22;66777;52.282;5.960;2023-02-15T05:05:28;-1.50;83.90
77613;DHT22;66777;52.282;5.960;2023-02-15T05:07:54;-1.50;83.80
77613;DHT22;66777;52.282;5.960;2023-02-15T05:10:20;-1.50;83.80
77613;DHT22;66777;52.282;5.960;2023-02-15T05:12:45;-1.60;83.90
77613;DHT22;66777;52.282;5.960;2023-02-15T05:15:12;-1.60;83.90
77613;DHT22;66777;52.282;5.960;2023-02-15T05:17:38;-1.60;84.00
77613;DHT22;66777;52.282;5.960;2023-02-15T05:20:04;-1.60;84.00
77613;DHT22;66777;52.282;5.960;2023-02-15T05:22:30;-1.50;84.10
77613;DHT22;66777;52.282;5.960;2023-02-15T05:24:55;-1.50;84.10
77613;DHT22;66777;52.282;5.960;2023-02-15T05:27:40;-1.50;84.20
77613;DHT22;66777;52.282;5.960;2023-02-15T05:30:24;-1.50;84.20
77613;DHT22;66777;52.282;5.960;2023-02-15T05:32:49;-1.50;84.10
77613;DHT22;66777;52.282;5.960;2023-02-15T05:35:15;-1.50;84.10
77613;DHT22;66777;52.282;5.960;2023-02-15T05:37:42;-1.50;84.10
77613;DHT22;66777;52.282;5.960;2023-02-15T05:40:08;-1.50;84.20
77613;DHT22;66777;52.282;5.960;2023-02-15T05:42:34;-1.50;84.10
77613;DHT22;66777;52.282;5.960;2023-02-15T05:44:59;-1.60;84.00
77613;DHT22;66777;52.282;5.960;2023-02-15T05:47:25;-1.60;83.90
77613;DHT22;66777;52.282;5.960;2023-02-15T05:49:51;-1.60;83.90
77613;DHT22;66777;52.282;5.960;2023-02-15T05:52:16;-1.60;83.90
77613;DHT22;66777;52.282;5.960;2023-02-15T05:54:42;-1.60;83.90
77613;DHT22;66777;52.282;5.960;2023-02-15T05:57:08;-1.60;83.90
77613;DHT22;66777;52.282;5.960;2023-02-15T05:59:39;-1.60;83.90
77613;DHT22;66777;52.282;5.960;2023-02-15T06:02:06;-1.60;83.90
77613;DHT22;66777;52.282;5.960;2023-02-15T06:04:32;-1.60;84.00
77613;DHT22;66777;52.282;5.960;2023-02-15T06:06:57;-1.60;83.90
77613;DHT22;66777;52.282;5.960;2023-02-15T06:09:23;-1.60;83.90
77613;DHT22;66777;52.282;5.960;2023-02-15T06:11:49;-1.60;84.00
77613;DHT22;66777;52.282;5.960;2023-02-15T06:14:14;-1.60;84.00
77613;DHT22;66777;52.282;5.960;2023-02-15T06:16:40;-1.60;83.90
77613;DHT22;66777;52.282;5.960;2023-02-15T06:19:05;-1.60;83.90
77613;DHT22;66777;52.282;5.960;2023-02-15T06:21:32;-1.60;83.90
77613;DHT22;66777;52.282;5.960;2023-02-15T06:23:57;-1.60;84.00
77613;DHT22;66777;52.282;5.960;2023-02-15T06:26:23;-1.60;83.90
77613;DHT22;66777;52.282;5.960;2023-02-15T06:28:49;-1.60;83.80
77613;DHT22;66777;52.282;5.960;2023-02-15T06:31:14;-1.60;83.70
77613;DHT22;66777;52.282;5.960;2023-02-15T06:33:40;-1.60;83.50
77613;DHT22;66777;52.282;5.960;2023-02-15T06:36:06;-1.70;83.50
77613;DHT22;66777;52.282;5.960;2023-02-15T06:38:32;-1.80;83.30
77613;DHT22;66777;52.282;5.960;2023-02-15T06:40:57;-1.80;83.40
77613;DHT22;66777;52.282;5.960;2023-02-15T06:43:23;-1.80;83.50
77613;DHT22;66777;52.282;5.960;2023-02-15T06:45:49;-1.80;83.50
77613;DHT22;66777;52.282;5.960;2023-02-15T06:48:15;-1.80;83.60
77613;DHT22;66777;52.282;5.960;2023-02-15T06:50:41;-1.80;83.60
77613;DHT22;66777;52.282;5.960;2023-02-15T06:53:06;-1.80;83.50
77613;DHT22;66777;52.282;5.960;2023-02-15T06:55:32;-1.80;83.40
77613;DHT22;66777;52.282;5.960;2023-02-15T06:57:57;-1.80;83.40
77613;DHT22;66777;52.282;5.960;2023-02-15T07:00:23;-1.80;83.40
77613;DHT22;66777;52.282;5.960;2023-02-15T07:02:55;-1.80;83.30
77613;DHT22;66777;52.282;5.960;2023-02-15T07:05:23;-1.80;83.20
77613;DHT22;66777;52.282;5.960;2023-02-15T07:07:49;-1.80;83.10
77613;DHT22;66777;52.282;5.960;2023-02-15T07:10:16;-1.80;83.10
77613;DHT22;66777;52.282;5.960;2023-02-15T07:12:42;-1.80;83.20
77613;DHT22;66777;52.282;5.960;2023-02-15T07:15:12;-1.80;83.20
77613;DHT22;66777;52.282;5.960;2023-02-15T07:17:38;-1.70;83.20
77613;DHT22;66777;52.282;5.960;2023-02-15T07:20:13;-1.70;83.20
77613;DHT22;66777;52.282;5.960;2023-02-15T07:22:41;-1.70;83.10
77613;DHT22;66777;52.282;5.960;2023-02-15T07:25:09;-1.60;82.90
77613;DHT22;66777;52.282;5.960;2023-02-15T07:27:36;-1.60;83.00
77613;DHT22;66777;52.282;5.960;2023-02-15T07:30:02;-1.50;82.80
77613;DHT22;66777;52.282;5.960;2023-02-15T07:32:31;-1.50;82.50
77613;DHT22;66777;52.282;5.960;2023-02-15T07:34:57;-1.50;82.50
77613;DHT22;66777;52.282;5.960;2023-02-15T07:37:23;-1.50;82.40
77613;DHT22;66777;52.282;5.960;2023-02-15T07:39:49;-1.40;82.40
77613;DHT22;66777;52.282;5.960;2023-02-15T07:42:14;-1.30;82.50
77613;DHT22;66777;52.282;5.960;2023-02-15T07:44:40;-1.20;82.40
77613;DHT22;66777;52.282;5.960;2023-02-15T07:47:05;-1.10;82.20
77613;DHT22;66777;52.282;5.960;2023-02-15T07:49:31;-1.10;82.00
77613;DHT22;66777;52.282;5.960;2023-02-15T07:51:57;-1.00;82.00
77613;DHT22;66777;52.282;5.960;2023-02-15T07:54:22;-0.90;81.80
77613;DHT22;66777;52.282;5.960;2023-02-15T07:56:48;-0.70;81.70
77613;DHT22;66777;52.282;5.960;2023-02-15T07:59:14;-0.70;81.50
77613;DHT22;66777;52.282;5.960;2023-02-15T08:01:39;-0.60;81.50
77613;DHT22;66777;52.282;5.960;2023-02-15T08:04:06;-0.50;81.40
77613;DHT22;66777;52.282;5.960;2023-02-15T08:06:34;-0.40;81.50
77613;DHT22;66777;52.282;5.960;2023-02-15T08:09:00;-0.30;81.60
77613;DHT22;66777;52.282;5.960;2023-02-15T08:11:29;-0.10;81.70
77613;DHT22;66777;52.282;5.960;2023-02-15T08:14:07;0.00;82.20
77613;DHT22;66777;52.282;5.960;2023-02-15T08:16:44;0.40;82.30
77613;DHT22;66777;52.282;5.960;2023-02-15T08:21:47;0.60;81.70
77613;DHT22;66777;52.282;5.960;2023-02-15T08:24:15;0.80;82.00
77613;DHT22;66777;52.282;5.960;2023-02-15T08:26:41;1.00;81.90
77613;DHT22;66777;52.282;5.960;2023-02-15T08:29:07;1.10;81.60
77613;DHT22;66777;52.282;5.960;2023-02-15T08:31:34;1.20;81.30
77613;DHT22;66777;52.282;5.960;2023-02-15T08:34:01;1.20;81.20
77613;DHT22;66777;52.282;5.960;2023-02-15T08:36:28;1.30;81.20
77613;DHT22;66777;52.282;5.960;2023-02-15T08:38:57;1.40;81.30
77613;DHT22;66777;52.282;5.960;2023-02-15T08:41:25;1.40;81.20
77613;DHT22;66777;52.282;5.960;2023-02-15T08:43:54;1.50;81.30
77613;DHT22;66777;52.282;5.960;2023-02-15T08:46:20;1.60;81.30
77613;DHT22;66777;52.282;5.960;2023-02-15T08:48:47;1.70;81.60
77613;DHT22;66777;52.282;5.960;2023-02-15T08:51:17;1.90;81.70
77613;DHT22;66777;52.282;5.960;2023-02-15T08:53:45;2.10;81.60
77613;DHT22;66777;52.282;5.960;2023-02-15T08:56:11;2.40;81.60
77613;DHT22;66777;52.282;5.960;2023-02-15T08:58:37;2.60;81.00
77613;DHT22;66777;52.282;5.960;2023-02-15T09:01:14;2.80;80.40
77613;DHT22;66777;52.282;5.960;2023-02-15T09:03:44;3.00;80.20
77613;DHT22;66777;52.282;5.960;2023-02-15T09:06:10;3.30;80.00
77613;DHT22;66777;52.282;5.960;2023-02-15T09:08:36;3.40;80.00
77613;DHT22;66777;52.282;5.960;2023-02-15T09:11:19;3.60;79.70
77613;DHT22;66777;52.282;5.960;2023-02-15T09:13:57;3.80;79.30
77613;DHT22;66777;52.282;5.960;2023-02-15T09:16:25;4.00;79.00
77613;DHT22;66777;52.282;5.960;2023-02-15T09:18:51;4.10;78.90
77613;DHT22;66777;52.282;5.960;2023-02-15T09:21:19;4.30;78.70
77613;DHT22;66777;52.282;5.960;2023-02-15T09:23:48;4.40;78.50
77613;DHT22;66777;52.282;5.960;2023-02-15T09:26:17;4.50;78.30
77613;DHT22;66777;52.282;5.960;2023-02-15T09:28:43;4.70;78.40
77613;DHT22;66777;52.282;5.960;2023-02-15T09:31:15;4.70;78.40
77613;DHT22;66777;52.282;5.960;2023-02-15T09:33:42;4.90;78.30
77613;DHT22;66777;52.282;5.960;2023-02-15T09:36:21;5.00;78.00
77613;DHT22;66777;52.282;5.960;2023-02-15T09:38:56;5.10;78.00
77613;DHT22;66777;52.282;5.960;2023-02-15T09:58:49;6.10;76.50
77613;DHT22;66777;52.282;5.960;2023-02-15T10:03:52;6.50;75.90
77613;DHT22;66777;52.282;5.960;2023-02-15T10:22:56;7.70;73.90
77613;DHT22;66777;52.282;5.960;2023-02-15T10:25:32;7.80;73.70
77613;DHT22;66777;52.282;5.960;2023-02-15T10:28:10;7.80;73.10
77613;DHT22;66777;52.282;5.960;2023-02-15T10:30:48;8.00;72.90
77613;DHT22;66777;52.282;5.960;2023-02-15T10:36:09;8.30;71.80
77613;DHT22;66777;52.282;5.960;2023-02-15T10:47:41;8.80;69.70
77613;DHT22;66777;52.282;5.960;2023-02-15T10:58:23;9.40;69.00
77613;DHT22;66777;52.282;5.960;2023-02-15T11:01:15;9.60;68.90
77613;DHT22;66777;52.282;5.960;2023-02-15T11:04:16;9.90;68.00
77613;DHT22;66777;52.282;5.960;2023-02-15T11:06:52;10.30;67.20
77613;DHT22;66777;52.282;5.960;2023-02-15T11:09:21;10.50;66.60
77613;DHT22;66777;52.282;5.960;2023-02-15T11:11:53;10.70;66.10
77613;DHT22;66777;52.282;5.960;2023-02-15T11:14:35;10.90;65.40
77613;DHT22;66777;52.282;5.960;2023-02-15T11:17:28;11.30;65.50
77613;DHT22;66777;52.282;5.960;2023-02-15T11:22:22;12.20;61.60
77613;DHT22;66777;52.282;5.960;2023-02-15T11:24:48;12.80;62.40
77613;DHT22;66777;52.282;5.960;2023-02-15T11:27:22;13.10;61.80
77613;DHT22;66777;52.282;5.960;2023-02-15T11:30:00;13.60;60.60
77613;DHT22;66777;52.282;5.960;2023-02-15T11:32:32;14.00;60.10
77613;DHT22;66777;52.282;5.960;2023-02-15T11:35:24;15.80;56.40
77613;DHT22;66777;52.282;5.960;2023-02-15T11:40:35;18.80;49.20
77613;DHT22;66777;52.282;5.960;2023-02-15T11:43:13;20.70;46.90
77613;DHT22;66777;52.282;5.960;2023-02-15T11:45:44;22.20;45.10
77613;DHT22;66777;52.282;5.960;2023-02-15T11:48:12;22.30;43.90
77613;DHT22;66777;52.282;5.960;2023-02-15T11:50:38;23.00;43.00
77613;DHT22;66777;52.282;5.960;2023-02-15T11:53:09;24.30;41.80
77613;DHT22;66777;52.282;5.960;2023-02-15T11:55:37;24.60;40.30
77613;DHT22;66777;52.282;5.960;2023-02-15T11:58:29;23.50;39.40
77613;DHT22;66777;52.282;5.960;2023-02-15T12:01:22;22.30;41.60
77613;DHT22;66777;52.282;5.960;2023-02-15T12:03:54;21.30;42.10
77613;DHT22;66777;52.282;5.960;2023-02-15T12:06:25;21.10;43.40
77613;DHT22;66777;52.282;5.960;2023-02-15T12:11:37;23.60;40.20
77613;DHT22;66777;52.282;5.960;2023-02-15T12:14:11;23.30;38.20
77613;DHT22;66777;52.282;5.960;2023-02-15T12:16:43;24.30;38.30
77613;DHT22;66777;52.282;5.960;2023-02-15T12:19:36;25.00;37.40
77613;DHT22;66777;52.282;5.960;2023-02-15T12:22:04;24.00;37.80
77613;DHT22;66777;52.282;5.960;2023-02-15T12:24:34;22.90;39.30
77613;DHT22;66777;52.282;5.960;2023-02-15T12:27:19;22.50;39.40
77613;DHT22;66777;52.282;5.960;2023-02-15T12:30:04;22.10;40.00
77613;DHT22;66777;52.282;5.960;2023-02-15T12:33:34;21.90;39.50
77613;DHT22;66777;52.282;5.960;2023-02-15T12:35:34;21.60;39.70
77613;DHT22;66777;52.282;5.960;2023-02-15T12:40:32;20.00;41.60
77613;DHT22;66777;52.282;5.960;2023-02-15T12:42:58;20.00;41.70
77613;DHT22;66777;52.282;5.960;2023-02-15T12:45:32;19.90;42.00
77613;DHT22;66777;52.282;5.960;2023-02-15T12:48:18;20.50;41.60
77613;DHT22;66777;52.282;5.960;2023-02-15T12:50:48;20.80;41.00
77613;DHT22;66777;52.282;5.960;2023-02-15T12:53:23;21.50;40.00
77613;DHT22;66777;52.282;5.960;2023-02-15T12:55:57;21.40;40.00
77613;DHT22;66777;52.282;5.960;2023-02-15T12:58:28;20.70;41.00
77613;DHT22;66777;52.282;5.960;2023-02-15T13:03:27;20.20;41.80
77613;DHT22;66777;52.282;5.960;2023-02-15T13:05:55;20.70;42.00
77613;DHT22;66777;52.282;5.960;2023-02-15T13:08:27;21.10;40.30
77613;DHT22;66777;52.282;5.960;2023-02-15T13:13:22;21.40;40.40
77613;DHT22;66777;52.282;5.960;2023-02-15T13:15:58;23.30;39.00
77613;DHT22;66777;52.282;5.960;2023-02-15T13:21:00;25.10;36.80
77613;DHT22;66777;52.282;5.960;2023-02-15T13:23:31;25.20;37.30
77613;DHT22;66777;52.282;5.960;2023-02-15T13:25:59;24.00;37.80
77613;DHT22;66777;52.282;5.960;2023-02-15T13:28:41;22.90;38.50
77613;DHT22;66777;52.282;5.960;2023-02-15T13:31:17;21.90;39.10
77613;DHT22;66777;52.282;5.960;2023-02-15T13:33:53;20.30;41.20
77613;DHT22;66777;52.282;5.960;2023-02-15T13:36:29;19.20;43.00
77613;DHT22;66777;52.282;5.960;2023-02-15T13:39:08;18.70;43.40
77613;DHT22;66777;52.282;5.960;2023-02-15T13:44:38;18.20;44.50
77613;DHT22;66777;52.282;5.960;2023-02-15T13:50:20;18.10;44.50
77613;DHT22;66777;52.282;5.960;2023-02-15T13:56:05;18.00;44.90
77613;DHT22;66777;52.282;5.960;2023-02-15T13:58:59;17.60;45.50
77613;DHT22;66777;52.282;5.960;2023-02-15T14:01:30;17.10;45.50
77613;DHT22;66777;52.282;5.960;2023-02-15T14:10:02;16.40;47.10
77613;DHT22;66777;52.282;5.960;2023-02-15T14:12:57;16.20;47.50
77613;DHT22;66777;52.282;5.960;2023-02-15T14:15:38;16.00;47.40
77613;DHT22;66777;52.282;5.960;2023-02-15T14:18:25;15.70;47.90
77613;DHT22;66777;52.282;5.960;2023-02-15T14:21:18;15.40;48.50
77613;DHT22;66777;52.282;5.960;2023-02-15T14:24:17;15.50;48.90
77613;DHT22;66777;52.282;5.960;2023-02-15T14:29:57;15.00;49.50
77613;DHT22;66777;52.282;5.960;2023-02-15T14:32:33;14.80;49.40
77613;DHT22;66777;52.282;5.960;2023-02-15T14:35:12;14.50;50.00
77613;DHT22;66777;52.282;5.960;2023-02-15T14:37:50;14.30;50.50
77613;DHT22;66777;52.282;5.960;2023-02-15T14:40:49;14.10;50.70
77613;DHT22;66777;52.282;5.960;2023-02-15T14:47:03;13.90;51.60
77613;DHT22;66777;52.282;5.960;2023-02-15T14:49:21;13.70;51.70
77613;DHT22;66777;52.282;5.960;2023-02-15T14:56:45;13.40;52.60
77613;DHT22;66777;52.282;5.960;2023-02-15T14:59:15;13.30;53.00
77613;DHT22;66777;52.282;5.960;2023-02-15T15:01:42;13.30;53.10
77613;DHT22;66777;52.282;5.960;2023-02-15T15:04:31;13.30;53.50
77613;DHT22;66777;52.282;5.960;2023-02-15T15:07:22;13.20;53.90
77613;DHT22;66777;52.282;5.960;2023-02-15T15:10:00;13.20;54.00
77613;DHT22;66777;52.282;5.960;2023-02-15T15:15:01;13.00;53.80
77613;DHT22;66777;52.282;5.960;2023-02-15T15:22:50;12.60;54.70
77613;DHT22;66777;52.282;5.960;2023-02-15T15:31:18;12.30;55.80
77613;DHT22;66777;52.282;5.960;2023-02-15T15:50:31;11.50;58.50
77613;DHT22;66777;52.282;5.960;2023-02-15T15:52:59;11.30;58.50
77613;DHT22;66777;52.282;5.960;2023-02-15T15:55:30;11.20;58.60
77613;DHT22;66777;52.282;5.960;2023-02-15T15:57:59;11.10;59.00
77613;DHT22;66777;52.282;5.960;2023-02-15T16:00:51;11.00;59.50
77613;DHT22;66777;52.282;5.960;2023-02-15T16:03:25;10.90;60.10
77613;DHT22;66777;52.282;5.960;2023-02-15T16:05:52;10.90;60.20
77613;DHT22;66777;52.282;5.960;2023-02-15T16:08:30;10.80;60.70
77613;DHT22;66777;52.282;5.960;2023-02-15T16:10:56;10.60;62.00
77613;DHT22;66777;52.282;5.960;2023-02-15T16:13:23;10.50;61.90
77613;DHT22;66777;52.282;5.960;2023-02-15T16:15:53;10.40;62.10
77613;DHT22;66777;52.282;5.960;2023-02-15T16:18:23;10.30;62.30
77613;DHT22;66777;52.282;5.960;2023-02-15T16:20:51;10.20;62.70
77613;DHT22;66777;52.282;5.960;2023-02-15T16:28:31;9.80;64.60
77613;DHT22;66777;52.282;5.960;2023-02-15T16:31:12;9.80;63.40
77613;DHT22;66777;52.282;5.960;2023-02-15T16:33:45;9.70;64.10
77613;DHT22;66777;52.282;5.960;2023-02-15T16:36:21;9.70;63.70
77613;DHT22;66777;52.282;5.960;2023-02-15T16:41:22;9.50;64.50
77613;DHT22;66777;52.282;5.960;2023-02-15T16:43:50;9.40;65.40
77613;DHT22;66777;52.282;5.960;2023-02-15T16:46:26;9.20;65.80
77613;DHT22;66777;52.282;5.960;2023-02-15T16:48:57;9.00;66.70
77613;DHT22;66777;52.282;5.960;2023-02-15T16:51:29;8.90;66.60
77613;DHT22;66777;52.282;5.960;2023-02-15T16:54:00;8.80;67.20
77613;DHT22;66777;52.282;5.960;2023-02-15T16:56:30;8.70;67.00
77613;DHT22;66777;52.282;5.960;2023-02-15T16:58:57;8.60;67.70
77613;DHT22;66777;52.282;5.960;2023-02-15T17:01:26;8.50;68.20
77613;DHT22;66777;52.282;5.960;2023-02-15T17:07:03;8.30;68.70
77613;DHT22;66777;52.282;5.960;2023-02-15T17:09:29;8.20;68.90
77613;DHT22;66777;52.282;5.960;2023-02-15T17:11:55;8.10;68.90
77613;DHT22;66777;52.282;5.960;2023-02-15T17:14:37;8.00;69.20
77613;DHT22;66777;52.282;5.960;2023-02-15T17:17:12;8.00;69.40
77613;DHT22;66777;52.282;5.960;2023-02-15T17:19:51;7.80;69.60
77613;DHT22;66777;52.282;5.960;2023-02-15T17:22:26;7.80;70.00
77613;DHT22;66777;52.282;5.960;2023-02-15T17:25:00;7.80;70.20
77613;DHT22;66777;52.282;5.960;2023-02-15T17:27:28;7.80;69.90
77613;DHT22;66777;52.282;5.960;2023-02-15T17:30:14;7.90;69.70
77613;DHT22;66777;52.282;5.960;2023-02-15T17:32:54;8.00;69.80
77613;DHT22;66777;52.282;5.960;2023-02-15T17:35:25;7.80;70.10
77613;DHT22;66777;52.282;5.960;2023-02-15T17:38:04;7.80;70.20
77613;DHT22;66777;52.282;5.960;2023-02-15T17:40:35;7.60;70.50
77613;DHT22;66777;52.282;5.960;2023-02-15T17:43:01;7.50;70.90
77613;DHT22;66777;52.282;5.960;2023-02-15T17:45:42;7.50;70.90
77613;DHT22;66777;52.282;5.960;2023-02-15T17:48:30;7.60;70.30
77613;DHT22;66777;52.282;5.960;2023-02-15T17:51:02;7.70;70.80
77613;DHT22;66777;52.282;5.960;2023-02-15T17:53:28;7.70;70.50
77613;DHT22;66777;52.282;5.960;2023-02-15T17:55:54;7.70;70.20
77613;DHT22;66777;52.282;5.960;2023-02-15T17:58:20;7.60;70.80
77613;DHT22;66777;52.282;5.960;2023-02-15T18:03:43;7.40;71.50
77613;DHT22;66777;52.282;5.960;2023-02-15T18:06:28;7.20;72.00
77613;DHT22;66777;52.282;5.960;2023-02-15T18:09:16;7.20;71.70
77613;DHT22;66777;52.282;5.960;2023-02-15T18:12:01;7.20;72.00
77613;DHT22;66777;52.282;5.960;2023-02-15T18:14:26;7.10;72.30
77613;DHT22;66777;52.282;5.960;2023-02-15T18:16:53;7.00;72.60
77613;DHT22;66777;52.282;5.960;2023-02-15T18:19:27;7.00;72.70
77613;DHT22;66777;52.282;5.960;2023-02-15T18:21:57;6.90;72.90
77613;DHT22;66777;52.282;5.960;2023-02-15T18:24:25;6.90;73.20
77613;DHT22;66777;52.282;5.960;2023-02-15T18:26:52;6.80;73.20
77613;DHT22;66777;52.282;5.960;2023-02-15T18:29:19;6.70;73.50
77613;DHT22;66777;52.282;5.960;2023-02-15T18:31:50;6.70;73.90
77613;DHT22;66777;52.282;5.960;2023-02-15T18:34:26;6.60;73.80
77613;DHT22;66777;52.282;5.960;2023-02-15T18:37:00;6.60;74.10
77613;DHT22;66777;52.282;5.960;2023-02-15T18:39:46;6.60;73.80
77613;DHT22;66777;52.282;5.960;2023-02-15T18:45:22;6.60;73.90
77613;DHT22;66777;52.282;5.960;2023-02-15T18:47:51;6.60;74.20
77613;DHT22;66777;52.282;5.960;2023-02-15T18:50:37;6.50;74.40
77613;DHT22;66777;52.282;5.960;2023-02-15T18:53:19;6.40;74.70
77613;DHT22;66777;52.282;5.960;2023-02-15T18:55:46;6.40;74.60
77613;DHT22;66777;52.282;5.960;2023-02-15T18:58:18;6.30;74.80
77613;DHT22;66777;52.282;5.960;2023-02-15T19:00:44;6.30;74.90
77613;DHT22;66777;52.282;5.960;2023-02-15T19:03:12;6.20;75.10
77613;DHT22;66777;52.282;5.960;2023-02-15T19:05:44;6.20;75.10